Hot Springs, VA

11:53 PM EDT on April 19, 2018 (GMT -0400)
Ingalls

Weather History for KHSP - February, 2013

Change the Weather History Date:

Sunday, February 24, 2013

  Actual Average Record
Temperature  
Mean Temperature 30 °F -  
Max Temperature 37 °F 37 °F 64 °F (2017)
Min Temperature 23 °F 23 °F 6 °F (2015)
Degree Days  
Heating Degree Days 35    
Moisture  
Dew Point 24 °F    
Average Humidity 73    
Maximum Humidity 100    
Minimum Humidity 41    
Precipitation  
Precipitation 0.00 in - - ()
Sea Level Pressure  
Sea Level Pressure 29.88 in    
Wind  
Wind Speed 14 mph (WNW)    
Max Wind Speed 23 mph    
Max Gust Speed 31 mph    
Visibility 10 miles    
Events      
Averages and records for this station are not official NWS values.
T = Trace of Precipitation, MM = Missing Value Source: NWS Daily Summary

Daily Weather History Graph

Daily Weather History Graph

Search for Another Location

Airport or City:

Astronomy

Feb. 24, 2013 Rise Set
Actual Time 6:57 AM EST 6:07 PM EST
Civil Twilight 6:30 AM EST 6:34 PM EST
Nautical Twilight 6:00 AM EST 7:05 PM EST
Astronomical Twilight 5:30 AM EST 7:35 PM EST
Moon 5:17 PM EST (2/24) 5:53 AM EST (2/24)
Length of Visible Light 12h 03m
Length of Day
11h 10m
Waxing Gibbous, 99% of the Moon is Illuminated
Feb 24
Waxing Gibbous
Feb 25
Full
Mar 4
Last Quarter
Mar 11
New
Mar 19
First Quarter

Hourly Weather History & Observations

Time (EST) Temp. Windchill Dew Point Humidity Pressure Visibility Wind Dir Wind Speed Gust Speed Precip Events Conditions
12:15 AM 37.4 °F 32.1 °F 37.4 °F 100% 29.82 in 10.0 mi West 6.9 mph - N/A   Clear
12:35 AM 37.4 °F 30.8 °F 37.4 °F 100% 29.83 in 10.0 mi West 9.2 mph - N/A   Mostly Cloudy
12:55 AM 35.6 °F 29.9 °F 35.6 °F 100% 29.82 in 10.0 mi WSW 6.9 mph - N/A   Mostly Cloudy
1:15 AM 37.4 °F 32.1 °F 33.8 °F 87% 29.83 in 10.0 mi WSW 6.9 mph - N/A   Overcast
1:35 AM 37.4 °F 30.3 °F 33.8 °F 87% 29.83 in 10.0 mi West 10.4 mph - N/A   Overcast
1:55 AM 37.4 °F 29.8 °F 33.8 °F 87% 29.83 in 10.0 mi West 11.5 mph - N/A   Overcast
2:15 AM 37.4 °F 30.8 °F 33.8 °F 87% 29.81 in 10.0 mi West 9.2 mph - N/A   Scattered Clouds
2:35 AM 35.6 °F 27.1 °F 33.8 °F 93% 29.81 in 10.0 mi West 12.7 mph - N/A   Mostly Cloudy
2:55 AM 35.6 °F 27.5 °F 33.8 °F 93% 29.81 in 10.0 mi West 11.5 mph - N/A   Overcast
3:15 AM 35.6 °F 25.5 °F 33.8 °F 93% 29.81 in 10.0 mi West 17.3 mph 21.9 mph N/A   Overcast
3:35 AM 35.6 °F 24.5 °F 33.8 °F 93% 29.81 in 10.0 mi West 20.7 mph 28.8 mph N/A   Overcast
3:55 AM 33.8 °F 22.8 °F 32.0 °F 93% 29.81 in 10.0 mi West 18.4 mph 25.3 mph N/A   Overcast
4:15 AM 33.8 °F 23.2 °F 30.2 °F 87% 29.79 in 10.0 mi West 17.3 mph 26.5 mph N/A   Scattered Clouds
4:35 AM 32.0 °F 20.8 °F 30.2 °F 93% 29.80 in 10.0 mi WNW 17.3 mph 23.0 mph N/A   Clear
5:15 AM 30.2 °F 18.9 °F 28.4 °F 93% 29.81 in 10.0 mi WNW 16.1 mph - N/A   Clear
5:35 AM 30.2 °F 19.3 °F 26.6 °F 86% 29.81 in 10.0 mi West 15.0 mph 20.7 mph N/A   Clear
5:55 AM 30.2 °F 20.8 °F 26.6 °F 86% 29.81 in 10.0 mi West 11.5 mph 20.7 mph N/A   Scattered Clouds
6:15 AM 30.2 °F 20.2 °F 26.6 °F 86% 29.81 in 10.0 mi West 12.7 mph 19.6 mph N/A   Clear
6:35 AM 30.2 °F 18.9 °F 26.6 °F 86% 29.81 in 10.0 mi West 16.1 mph 21.9 mph N/A   Clear
6:55 AM 28.4 °F 16.2 °F 26.6 °F 93% 29.83 in 10.0 mi West 17.3 mph - N/A   Scattered Clouds
7:15 AM 28.4 °F 16.6 °F 26.6 °F 93% 29.82 in 10.0 mi West 16.1 mph 21.9 mph N/A   Scattered Clouds
7:35 AM 28.4 °F 16.6 °F 26.6 °F 93% 29.83 in 10.0 mi West 16.1 mph 21.9 mph N/A   Mostly Cloudy
7:55 AM 28.4 °F 15.8 °F 26.6 °F 93% 29.84 in 10.0 mi West 18.4 mph 24.2 mph N/A   Scattered Clouds
8:35 AM 30.2 °F 17.8 °F 26.6 °F 86% 29.86 in 10.0 mi West 19.6 mph 25.3 mph N/A   Mostly Cloudy
8:55 AM 30.2 °F 17.8 °F 26.6 °F 86% 29.86 in 10.0 mi West 19.6 mph 26.5 mph N/A   Mostly Cloudy
9:15 AM 30.2 °F 19.3 °F 24.8 °F 80% 29.87 in 10.0 mi West 15.0 mph 24.2 mph N/A   Overcast
9:35 AM 30.2 °F 18.9 °F 24.8 °F 80% 29.87 in 10.0 mi West 16.1 mph 24.2 mph N/A   Overcast
9:55 AM 30.2 °F 18.9 °F 21.2 °F 69% 29.87 in 10.0 mi West 16.1 mph 29.9 mph N/A   Mostly Cloudy
10:15 AM 30.2 °F 18.1 °F 21.2 °F 69% 29.87 in 10.0 mi West 18.4 mph 25.3 mph N/A   Scattered Clouds
10:35 AM 32.0 °F 21.6 °F 23.0 °F 69% 29.87 in 10.0 mi West 15.0 mph 23.0 mph N/A   Scattered Clouds
10:55 AM 32.0 °F 21.6 °F 23.0 °F 69% 29.87 in 10.0 mi West 15.0 mph 21.9 mph N/A   Mostly Cloudy
11:15 AM 33.8 °F 24.3 °F 23.0 °F 65% 29.87 in 10.0 mi West 13.8 mph 24.2 mph N/A   Scattered Clouds
11:35 AM 33.8 °F 21.9 °F 23.0 °F 65% 29.87 in 10.0 mi West 21.9 mph 31.1 mph N/A   Clear
11:55 AM 35.6 °F 24.5 °F 21.2 °F 56% 29.86 in 10.0 mi West 20.7 mph 26.5 mph N/A   Clear
12:15 PM 35.6 °F 24.2 °F 21.2 °F 56% 29.86 in 10.0 mi WNW 21.9 mph 29.9 mph N/A   Clear
12:35 PM 35.6 °F 25.2 °F 21.2 °F 56% 29.86 in 10.0 mi WNW 18.4 mph 31.1 mph N/A   Clear
12:55 PM 37.4 °F 27.5 °F 21.2 °F 52% 29.86 in 10.0 mi West 18.4 mph 31.1 mph N/A   Clear
1:15 PM 35.6 °F 24.8 °F 19.4 °F 52% 29.86 in 10.0 mi WNW 19.6 mph 29.9 mph N/A   Clear
1:35 PM 37.4 °F 27.2 °F 19.4 °F 48% 29.85 in 10.0 mi West 19.6 mph 25.3 mph N/A   Clear
1:55 PM 37.4 °F 27.2 °F 19.4 °F 48% 29.86 in 10.0 mi WNW 19.6 mph 28.8 mph N/A   Clear
2:15 PM 37.4 °F 27.2 °F 19.4 °F 48% 29.87 in 10.0 mi West 19.6 mph 24.2 mph N/A   Clear
2:35 PM 37.4 °F 27.2 °F 19.4 °F 48% 29.86 in 10.0 mi West 19.6 mph 24.2 mph N/A   Clear
2:55 PM 37.4 °F 27.8 °F 19.4 °F 48% 29.87 in 10.0 mi West 17.3 mph 29.9 mph N/A   Clear
3:15 PM 37.4 °F 27.5 °F 19.4 °F 48% 29.87 in 10.0 mi West 18.4 mph 25.3 mph N/A   Clear
3:35 PM 37.4 °F 27.8 °F 17.6 °F 45% 29.88 in 10.0 mi West 17.3 mph 27.6 mph N/A   Clear
3:55 PM 37.4 °F 28.2 °F 15.8 °F 41% 29.89 in 10.0 mi West 16.1 mph 27.6 mph N/A   Clear
4:15 PM 37.4 °F 27.8 °F 17.6 °F 45% 29.89 in 10.0 mi West 17.3 mph 23.0 mph N/A   Clear
4:35 PM 37.4 °F 27.5 °F 17.6 °F 45% 29.90 in 10.0 mi West 18.4 mph - N/A   Clear
4:55 PM 35.6 °F 24.5 °F 17.6 °F 48% 29.90 in 10.0 mi West 20.7 mph 25.3 mph N/A   Clear
5:15 PM 35.6 °F 24.8 °F 17.6 °F 48% 29.90 in 10.0 mi West 19.6 mph 27.6 mph N/A   Clear
5:35 PM 35.6 °F 24.0 °F 17.6 °F 48% 29.90 in 10.0 mi West 23.0 mph 27.6 mph N/A   Clear
5:55 PM 33.8 °F 23.2 °F 17.6 °F 52% 29.91 in 10.0 mi WNW 17.3 mph 26.5 mph N/A   Clear
6:15 PM 33.8 °F 23.9 °F 17.6 °F 52% 29.91 in 10.0 mi WNW 15.0 mph 27.6 mph N/A   Clear
7:15 PM 30.2 °F 20.2 °F 19.4 °F 64% 29.95 in 10.0 mi West 12.7 mph 24.2 mph N/A   Unknown
7:35 PM 30.2 °F 20.8 °F 19.4 °F 64% 29.95 in 10.0 mi WNW 11.5 mph 20.7 mph N/A   Clear
7:55 PM 28.4 °F 17.5 °F 19.4 °F 69% 29.95 in 10.0 mi WNW 13.8 mph 21.9 mph N/A   Clear
8:35 PM 28.4 °F 18.5 °F 19.4 °F 69% 29.97 in 10.0 mi WNW 11.5 mph 21.9 mph N/A   Clear
8:55 PM 28.4 °F 16.6 °F 19.4 °F 69% 29.98 in 10.0 mi WNW 16.1 mph 23.0 mph N/A   Clear
9:15 PM 26.6 °F 14.7 °F 19.4 °F 74% 29.99 in 10.0 mi WNW 15.0 mph 21.9 mph N/A   Clear
9:35 PM 26.6 °F 14.3 °F 19.4 °F 74% 29.99 in 10.0 mi WNW 16.1 mph 21.9 mph N/A   Clear
9:55 PM 26.6 °F 19.1 °F 19.4 °F 74% 29.99 in 10.0 mi WNW 6.9 mph - N/A   Clear
10:15 PM 24.8 °F 14.6 °F 19.4 °F 80% 30.00 in 10.0 mi NW 10.4 mph - N/A   Clear
10:35 PM 24.8 °F 14.6 °F 19.4 °F 80% 29.99 in 10.0 mi NW 10.4 mph - N/A   Clear
10:55 PM 24.8 °F 16.1 °F 19.4 °F 80% 29.99 in 10.0 mi NW 8.1 mph 16.1 mph N/A   Clear
11:15 PM 24.8 °F 14.6 °F 19.4 °F 80% 29.99 in 10.0 mi NW 10.4 mph 17.3 mph N/A   Clear
11:35 PM 23.0 °F 14.7 °F 19.4 °F 86% 29.99 in 10.0 mi NNW 6.9 mph 16.1 mph N/A   Clear
11:55 PM 23.0 °F 15.8 °F 19.4 °F 86% 30.00 in 10.0 mi NNW 5.8 mph - N/A   Clear